sensor_id;sensor_type;location;lat;lon;timestamp;P1;durP1;ratioP1;P2;durP2;ratioP2
14203;SDS011;7185;51.854;6.622;2022-08-01T00:02:24;25.95;;;15.13;;
14203;SDS011;7185;51.854;6.622;2022-08-01T00:04:56;27.95;;;15.90;;
14203;SDS011;7185;51.854;6.622;2022-08-01T00:07:31;23.95;;;15.50;;
14203;SDS011;7185;51.854;6.622;2022-08-01T00:10:04;20.42;;;14.07;;
14203;SDS011;7185;51.854;6.622;2022-08-01T00:12:39;26.58;;;15.23;;
14203;SDS011;7185;51.854;6.622;2022-08-01T00:15:13;26.08;;;15.85;;
14203;SDS011;7185;51.854;6.622;2022-08-01T00:17:46;23.63;;;14.23;;
14203;SDS011;7185;51.854;6.622;2022-08-01T00:20:18;24.83;;;14.43;;
14203;SDS011;7185;51.854;6.622;2022-08-01T00:22:49;23.63;;;14.73;;
14203;SDS011;7185;51.854;6.622;2022-08-01T00:25:21;23.48;;;14.13;;
14203;SDS011;7185;51.854;6.622;2022-08-01T00:27:55;25.45;;;14.20;;
14203;SDS011;7185;51.854;6.622;2022-08-01T00:30:30;24.50;;;14.90;;
14203;SDS011;7185;51.854;6.622;2022-08-01T00:33:02;25.83;;;14.18;;
14203;SDS011;7185;51.854;6.622;2022-08-01T00:35:34;25.08;;;14.02;;
14203;SDS011;7185;51.854;6.622;2022-08-01T00:38:05;24.90;;;13.60;;
14203;SDS011;7185;51.854;6.622;2022-08-01T00:40:37;24.40;;;13.57;;
14203;SDS011;7185;51.854;6.622;2022-08-01T00:43:10;21.85;;;12.95;;
14203;SDS011;7185;51.854;6.622;2022-08-01T00:45:42;22.25;;;12.85;;
14203;SDS011;7185;51.854;6.622;2022-08-01T00:48:14;21.75;;;12.40;;
14203;SDS011;7185;51.854;6.622;2022-08-01T00:50:46;19.45;;;12.07;;
14203;SDS011;7185;51.854;6.622;2022-08-01T00:53:19;18.90;;;11.10;;
14203;SDS011;7185;51.854;6.622;2022-08-01T00:55:58;21.40;;;12.13;;
14203;SDS011;7185;51.854;6.622;2022-08-01T00:58:33;19.10;;;12.25;;
14203;SDS011;7185;51.854;6.622;2022-08-01T01:01:05;17.63;;;10.98;;
14203;SDS011;7185;51.854;6.622;2022-08-01T01:03:38;16.20;;;10.50;;
14203;SDS011;7185;51.854;6.622;2022-08-01T01:06:15;17.10;;;11.00;;
14203;SDS011;7185;51.854;6.622;2022-08-01T01:09:00;18.00;;;10.50;;
14203;SDS011;7185;51.854;6.622;2022-08-01T01:11:44;16.67;;;10.07;;
14203;SDS011;7185;51.854;6.622;2022-08-01T01:14:30;16.67;;;11.00;;
14203;SDS011;7185;51.854;6.622;2022-08-01T01:17:07;15.63;;;9.93;;
14203;SDS011;7185;51.854;6.622;2022-08-01T01:19:49;18.27;;;11.60;;
14203;SDS011;7185;51.854;6.622;2022-08-01T01:22:33;16.33;;;10.75;;
14203;SDS011;7185;51.854;6.622;2022-08-01T01:25:24;19.50;;;10.35;;
14203;SDS011;7185;51.854;6.622;2022-08-01T01:28:05;19.48;;;10.63;;
14203;SDS011;7185;51.854;6.622;2022-08-01T01:30:46;15.85;;;9.77;;
14203;SDS011;7185;51.854;6.622;2022-08-01T01:33:23;16.45;;;10.40;;
14203;SDS011;7185;51.854;6.622;2022-08-01T01:35:59;21.10;;;9.90;;
14203;SDS011;7185;51.854;6.622;2022-08-01T01:38:36;16.35;;;9.82;;
14203;SDS011;7185;51.854;6.622;2022-08-01T01:41:13;15.68;;;9.52;;
14203;SDS011;7185;51.854;6.622;2022-08-01T01:43:49;16.20;;;9.52;;
14203;SDS011;7185;51.854;6.622;2022-08-01T01:46:25;17.35;;;10.07;;
14203;SDS011;7185;51.854;6.622;2022-08-01T01:49:00;15.68;;;9.48;;
14203;SDS011;7185;51.854;6.622;2022-08-01T01:51:34;16.80;;;10.48;;
14203;SDS011;7185;51.854;6.622;2022-08-01T01:54:11;16.98;;;10.38;;
14203;SDS011;7185;51.854;6.622;2022-08-01T01:56:43;18.13;;;9.80;;
14203;SDS011;7185;51.854;6.622;2022-08-01T01:59:20;16.58;;;10.77;;
14203;SDS011;7185;51.854;6.622;2022-08-01T02:07:07;14.95;;;9.68;;
14203;SDS011;7185;51.854;6.622;2022-08-01T02:09:43;15.55;;;9.85;;
14203;SDS011;7185;51.854;6.622;2022-08-01T02:12:17;19.95;;;10.48;;
14203;SDS011;7185;51.854;6.622;2022-08-01T02:14:52;14.90;;;9.75;;
14203;SDS011;7185;51.854;6.622;2022-08-01T02:17:26;19.50;;;10.32;;
14203;SDS011;7185;51.854;6.622;2022-08-01T02:19:59;17.23;;;9.48;;
14203;SDS011;7185;51.854;6.622;2022-08-01T02:22:32;19.88;;;10.88;;
14203;SDS011;7185;51.854;6.622;2022-08-01T02:27:44;17.83;;;9.80;;
14203;SDS011;7185;51.854;6.622;2022-08-01T02:30:21;20.40;;;10.45;;
14203;SDS011;7185;51.854;6.622;2022-08-01T02:32:57;17.25;;;9.73;;
14203;SDS011;7185;51.854;6.622;2022-08-01T02:35:33;17.85;;;9.55;;
14203;SDS011;7185;51.854;6.622;2022-08-01T02:38:09;12.82;;;9.13;;
14203;SDS011;7185;51.854;6.622;2022-08-01T02:40:43;16.17;;;9.82;;
14203;SDS011;7185;51.854;6.622;2022-08-01T02:43:18;14.65;;;8.32;;
14203;SDS011;7185;51.854;6.622;2022-08-01T02:45:52;15.63;;;9.15;;
14203;SDS011;7185;51.854;6.622;2022-08-01T02:48:28;17.65;;;9.60;;
14203;SDS011;7185;51.854;6.622;2022-08-01T02:51:03;14.13;;;9.02;;
14203;SDS011;7185;51.854;6.622;2022-08-01T02:53:38;16.58;;;9.52;;
14203;SDS011;7185;51.854;6.622;2022-08-01T02:56:12;16.42;;;9.82;;
14203;SDS011;7185;51.854;6.622;2022-08-01T02:58:44;18.40;;;10.23;;
14203;SDS011;7185;51.854;6.622;2022-08-01T03:01:17;14.85;;;9.02;;
14203;SDS011;7185;51.854;6.622;2022-08-01T03:03:51;16.88;;;9.43;;
14203;SDS011;7185;51.854;6.622;2022-08-01T03:06:22;13.77;;;9.38;;
14203;SDS011;7185;51.854;6.622;2022-08-01T03:08:55;14.43;;;8.02;;
14203;SDS011;7185;51.854;6.622;2022-08-01T03:11:28;15.75;;;9.02;;
14203;SDS011;7185;51.854;6.622;2022-08-01T03:14:02;15.00;;;8.88;;
14203;SDS011;7185;51.854;6.622;2022-08-01T03:16:39;14.68;;;8.65;;
14203;SDS011;7185;51.854;6.622;2022-08-01T03:19:14;14.02;;;8.65;;
14203;SDS011;7185;51.854;6.622;2022-08-01T03:21:49;14.37;;;8.60;;
14203;SDS011;7185;51.854;6.622;2022-08-01T03:24:21;13.73;;;8.65;;
14203;SDS011;7185;51.854;6.622;2022-08-01T03:26:55;14.57;;;8.52;;
14203;SDS011;7185;51.854;6.622;2022-08-01T03:29:29;14.68;;;8.73;;
14203;SDS011;7185;51.854;6.622;2022-08-01T03:32:03;13.90;;;8.35;;
14203;SDS011;7185;51.854;6.622;2022-08-01T03:34:37;14.43;;;9.15;;
14203;SDS011;7185;51.854;6.622;2022-08-01T03:37:10;12.80;;;8.15;;
14203;SDS011;7185;51.854;6.622;2022-08-01T03:39:46;18.58;;;10.52;;
14203;SDS011;7185;51.854;6.622;2022-08-01T03:42:20;17.25;;;9.73;;
14203;SDS011;7185;51.854;6.622;2022-08-01T03:44:59;18.15;;;10.23;;
14203;SDS011;7185;51.854;6.622;2022-08-01T03:47:33;17.23;;;10.43;;
14203;SDS011;7185;51.854;6.622;2022-08-01T03:50:08;17.98;;;10.75;;
14203;SDS011;7185;51.854;6.622;2022-08-01T03:52:41;20.88;;;11.93;;
14203;SDS011;7185;51.854;6.622;2022-08-01T03:55:16;22.02;;;11.63;;
14203;SDS011;7185;51.854;6.622;2022-08-01T03:57:49;19.00;;;10.85;;
14203;SDS011;7185;51.854;6.622;2022-08-01T04:00:21;19.48;;;11.65;;
14203;SDS011;7185;51.854;6.622;2022-08-01T04:02:55;20.65;;;12.35;;
14203;SDS011;7185;51.854;6.622;2022-08-01T04:05:29;21.67;;;12.98;;
14203;SDS011;7185;51.854;6.622;2022-08-01T04:08:01;21.63;;;11.27;;
14203;SDS011;7185;51.854;6.622;2022-08-01T04:10:33;21.50;;;12.10;;
14203;SDS011;7185;51.854;6.622;2022-08-01T04:13:04;17.52;;;11.98;;
14203;SDS011;7185;51.854;6.622;2022-08-01T04:15:36;21.83;;;12.23;;
14203;SDS011;7185;51.854;6.622;2022-08-01T04:18:08;20.33;;;12.52;;
14203;SDS011;7185;51.854;6.622;2022-08-01T04:20:41;23.80;;;12.60;;
14203;SDS011;7185;51.854;6.622;2022-08-01T04:23:13;19.63;;;11.95;;
14203;SDS011;7185;51.854;6.622;2022-08-01T04:25:46;21.48;;;11.02;;
14203;SDS011;7185;51.854;6.622;2022-08-01T04:28:20;20.80;;;12.48;;
14203;SDS011;7185;51.854;6.622;2022-08-01T04:30:54;23.67;;;12.73;;
14203;SDS011;7185;51.854;6.622;2022-08-01T04:33:27;23.08;;;12.63;;
14203;SDS011;7185;51.854;6.622;2022-08-01T04:36:02;21.02;;;12.48;;
14203;SDS011;7185;51.854;6.622;2022-08-01T04:38:37;19.63;;;11.55;;
14203;SDS011;7185;51.854;6.622;2022-08-01T04:41:11;20.13;;;12.10;;
14203;SDS011;7185;51.854;6.622;2022-08-01T04:43:44;22.10;;;11.68;;
14203;SDS011;7185;51.854;6.622;2022-08-01T04:46:16;23.30;;;12.43;;
14203;SDS011;7185;51.854;6.622;2022-08-01T04:48:49;20.40;;;11.88;;
14203;SDS011;7185;51.854;6.622;2022-08-01T04:51:23;20.60;;;11.93;;
14203;SDS011;7185;51.854;6.622;2022-08-01T04:53:55;19.83;;;11.35;;
14203;SDS011;7185;51.854;6.622;2022-08-01T04:56:27;22.58;;;11.75;;
14203;SDS011;7185;51.854;6.622;2022-08-01T04:58:59;21.45;;;11.95;;
14203;SDS011;7185;51.854;6.622;2022-08-01T05:01:50;19.92;;;11.43;;
14203;SDS011;7185;51.854;6.622;2022-08-01T05:04:22;20.15;;;11.02;;
14203;SDS011;7185;51.854;6.622;2022-08-01T05:06:55;19.80;;;10.70;;
14203;SDS011;7185;51.854;6.622;2022-08-01T05:09:26;19.15;;;11.27;;
14203;SDS011;7185;51.854;6.622;2022-08-01T05:11:58;16.58;;;10.23;;
14203;SDS011;7185;51.854;6.622;2022-08-01T05:14:32;20.45;;;11.40;;
14203;SDS011;7185;51.854;6.622;2022-08-01T05:17:04;17.60;;;10.43;;
14203;SDS011;7185;51.854;6.622;2022-08-01T05:19:38;16.73;;;9.15;;
14203;SDS011;7185;51.854;6.622;2022-08-01T05:22:12;18.55;;;10.18;;
14203;SDS011;7185;51.854;6.622;2022-08-01T05:24:43;18.20;;;9.85;;
14203;SDS011;7185;51.854;6.622;2022-08-01T05:27:17;19.60;;;9.73;;
14203;SDS011;7185;51.854;6.622;2022-08-01T05:29:48;15.85;;;8.63;;
14203;SDS011;7185;51.854;6.622;2022-08-01T05:32:20;13.52;;;7.93;;
14203;SDS011;7185;51.854;6.622;2022-08-01T05:34:52;13.20;;;7.85;;
14203;SDS011;7185;51.854;6.622;2022-08-01T05:37:25;12.63;;;7.40;;
14203;SDS011;7185;51.854;6.622;2022-08-01T05:39:56;10.80;;;6.97;;
14203;SDS011;7185;51.854;6.622;2022-08-01T05:42:28;11.55;;;7.20;;
14203;SDS011;7185;51.854;6.622;2022-08-01T05:45:00;13.13;;;7.25;;
14203;SDS011;7185;51.854;6.622;2022-08-01T05:47:31;11.10;;;6.65;;
14203;SDS011;7185;51.854;6.622;2022-08-01T05:50:03;10.20;;;6.43;;
14203;SDS011;7185;51.854;6.622;2022-08-01T05:52:37;11.00;;;6.70;;
14203;SDS011;7185;51.854;6.622;2022-08-01T05:55:09;10.40;;;6.45;;
14203;SDS011;7185;51.854;6.622;2022-08-01T05:57:40;11.52;;;6.47;;
14203;SDS011;7185;51.854;6.622;2022-08-01T06:00:12;9.82;;;6.15;;
14203;SDS011;7185;51.854;6.622;2022-08-01T06:02:45;8.50;;;5.78;;
14203;SDS011;7185;51.854;6.622;2022-08-01T06:05:17;10.73;;;5.50;;
14203;SDS011;7185;51.854;6.622;2022-08-01T06:07:50;10.90;;;5.90;;
14203;SDS011;7185;51.854;6.622;2022-08-01T06:10:22;7.65;;;5.03;;
14203;SDS011;7185;51.854;6.622;2022-08-01T06:12:53;8.55;;;4.93;;
14203;SDS011;7185;51.854;6.622;2022-08-01T06:15:25;7.85;;;4.30;;
14203;SDS011;7185;51.854;6.622;2022-08-01T06:17:57;7.95;;;4.53;;
14203;SDS011;7185;51.854;6.622;2022-08-01T06:20:28;7.57;;;4.95;;
14203;SDS011;7185;51.854;6.622;2022-08-01T06:23:02;7.75;;;5.22;;
14203;SDS011;7185;51.854;6.622;2022-08-01T06:25:33;6.20;;;4.10;;
14203;SDS011;7185;51.854;6.622;2022-08-01T06:28:05;7.45;;;4.45;;
14203;SDS011;7185;51.854;6.622;2022-08-01T06:30:37;5.93;;;3.47;;
14203;SDS011;7185;51.854;6.622;2022-08-01T06:33:08;6.10;;;3.95;;
14203;SDS011;7185;51.854;6.622;2022-08-01T06:35:40;6.00;;;3.65;;
14203;SDS011;7185;51.854;6.622;2022-08-01T06:38:13;8.20;;;4.40;;
14203;SDS011;7185;51.854;6.622;2022-08-01T06:40:45;7.70;;;4.88;;
14203;SDS011;7185;51.854;6.622;2022-08-01T06:43:17;6.50;;;4.43;;
14203;SDS011;7185;51.854;6.622;2022-08-01T06:45:49;5.75;;;4.25;;
14203;SDS011;7185;51.854;6.622;2022-08-01T06:48:21;6.80;;;4.40;;
14203;SDS011;7185;51.854;6.622;2022-08-01T06:50:53;6.78;;;3.85;;
14203;SDS011;7185;51.854;6.622;2022-08-01T06:53:40;5.97;;;3.83;;
14203;SDS011;7185;51.854;6.622;2022-08-01T06:56:12;6.43;;;3.65;;
14203;SDS011;7185;51.854;6.622;2022-08-01T06:58:43;5.60;;;3.55;;
14203;SDS011;7185;51.854;6.622;2022-08-01T07:01:16;6.65;;;3.00;;
14203;SDS011;7185;51.854;6.622;2022-08-01T07:03:48;6.35;;;2.60;;
14203;SDS011;7185;51.854;6.622;2022-08-01T07:06:19;5.78;;;2.50;;
14203;SDS011;7185;51.854;6.622;2022-08-01T07:08:53;4.85;;;3.15;;
14203;SDS011;7185;51.854;6.622;2022-08-01T07:11:25;4.45;;;2.80;;
14203;SDS011;7185;51.854;6.622;2022-08-01T07:13:56;5.18;;;2.95;;
14203;SDS011;7185;51.854;6.622;2022-08-01T07:16:29;3.92;;;2.30;;
14203;SDS011;7185;51.854;6.622;2022-08-01T07:19:00;3.90;;;2.63;;
14203;SDS011;7185;51.854;6.622;2022-08-01T07:21:32;3.42;;;2.20;;
14203;SDS011;7185;51.854;6.622;2022-08-01T07:24:06;3.90;;;2.03;;
14203;SDS011;7185;51.854;6.622;2022-08-01T07:26:39;2.65;;;1.80;;
14203;SDS011;7185;51.854;6.622;2022-08-01T07:29:12;3.17;;;1.60;;
14203;SDS011;7185;51.854;6.622;2022-08-01T07:31:49;1.80;;;1.10;;
14203;SDS011;7185;51.854;6.622;2022-08-01T07:34:20;2.08;;;1.10;;
14203;SDS011;7185;51.854;6.622;2022-08-01T07:36:53;2.05;;;1.00;;
14203;SDS011;7185;51.854;6.622;2022-08-01T07:39:26;0.80;;;0.50;;
14203;SDS011;7185;51.854;6.622;2022-08-01T07:41:57;1.02;;;0.55;;
14203;SDS011;7185;51.854;6.622;2022-08-01T07:44:29;0.90;;;0.55;;
14203;SDS011;7185;51.854;6.622;2022-08-01T07:47:03;1.20;;;0.60;;
14203;SDS011;7185;51.854;6.622;2022-08-01T07:49:36;1.35;;;0.90;;
14203;SDS011;7185;51.854;6.622;2022-08-01T07:52:07;5.90;;;1.45;;
14203;SDS011;7185;51.854;6.622;2022-08-01T07:54:40;1.13;;;0.60;;
14203;SDS011;7185;51.854;6.622;2022-08-01T07:57:12;1.15;;;0.70;;
14203;SDS011;7185;51.854;6.622;2022-08-01T07:59:44;0.70;;;0.60;;
14203;SDS011;7185;51.854;6.622;2022-08-01T08:02:18;0.85;;;0.68;;
14203;SDS011;7185;51.854;6.622;2022-08-01T08:04:50;1.20;;;0.80;;
14203;SDS011;7185;51.854;6.622;2022-08-01T08:07:22;2.33;;;1.45;;
14203;SDS011;7185;51.854;6.622;2022-08-01T08:09:55;2.30;;;0.70;;
14203;SDS011;7185;51.854;6.622;2022-08-01T08:12:27;1.73;;;0.80;;
14203;SDS011;7185;51.854;6.622;2022-08-01T08:14:59;1.88;;;0.80;;
14203;SDS011;7185;51.854;6.622;2022-08-01T08:17:31;1.83;;;0.82;;
14203;SDS011;7185;51.854;6.622;2022-08-01T08:20:07;1.77;;;0.77;;
14203;SDS011;7185;51.854;6.622;2022-08-01T08:22:39;2.33;;;0.95;;
14203;SDS011;7185;51.854;6.622;2022-08-01T08:25:13;1.50;;;0.93;;
14203;SDS011;7185;51.854;6.622;2022-08-01T08:27:50;2.03;;;0.90;;
14203;SDS011;7185;51.854;6.622;2022-08-01T08:30:25;3.30;;;1.10;;
14203;SDS011;7185;51.854;6.622;2022-08-01T08:32:56;1.98;;;1.00;;
14203;SDS011;7185;51.854;6.622;2022-08-01T08:35:30;2.72;;;1.10;;
14203;SDS011;7185;51.854;6.622;2022-08-01T08:38:03;2.38;;;1.17;;
14203;SDS011;7185;51.854;6.622;2022-08-01T08:40:36;3.45;;;1.33;;
14203;SDS011;7185;51.854;6.622;2022-08-01T08:43:10;2.55;;;1.15;;
14203;SDS011;7185;51.854;6.622;2022-08-01T08:45:42;2.40;;;1.20;;
14203;SDS011;7185;51.854;6.622;2022-08-01T08:48:16;2.08;;;1.10;;
14203;SDS011;7185;51.854;6.622;2022-08-01T08:50:48;2.70;;;1.38;;
14203;SDS011;7185;51.854;6.622;2022-08-01T08:53:22;2.42;;;1.58;;
14203;SDS011;7185;51.854;6.622;2022-08-01T08:55:58;3.08;;;1.40;;
14203;SDS011;7185;51.854;6.622;2022-08-01T08:58:32;2.42;;;1.65;;
14203;SDS011;7185;51.854;6.622;2022-08-01T09:01:10;5.25;;;1.90;;
14203;SDS011;7185;51.854;6.622;2022-08-01T09:03:43;2.65;;;1.75;;
14203;SDS011;7185;51.854;6.622;2022-08-01T09:06:18;3.05;;;1.67;;
14203;SDS011;7185;51.854;6.622;2022-08-01T09:08:54;4.85;;;1.67;;
14203;SDS011;7185;51.854;6.622;2022-08-01T09:11:27;3.00;;;1.70;;
14203;SDS011;7185;51.854;6.622;2022-08-01T09:14:06;3.63;;;1.80;;
14203;SDS011;7185;51.854;6.622;2022-08-01T09:16:40;2.40;;;1.63;;
14203;SDS011;7185;51.854;6.622;2022-08-01T09:19:14;2.30;;;1.65;;
14203;SDS011;7185;51.854;6.622;2022-08-01T09:21:55;2.85;;;1.70;;
14203;SDS011;7185;51.854;6.622;2022-08-01T09:24:29;4.30;;;1.75;;
14203;SDS011;7185;51.854;6.622;2022-08-01T09:27:14;2.72;;;1.73;;
14203;SDS011;7185;51.854;6.622;2022-08-01T09:29:48;2.67;;;1.70;;
14203;SDS011;7185;51.854;6.622;2022-08-01T09:32:21;2.78;;;1.90;;
14203;SDS011;7185;51.854;6.622;2022-08-01T09:34:54;3.58;;;1.77;;
14203;SDS011;7185;51.854;6.622;2022-08-01T09:37:29;2.47;;;1.70;;
14203;SDS011;7185;51.854;6.622;2022-08-01T09:40:01;2.83;;;1.77;;
14203;SDS011;7185;51.854;6.622;2022-08-01T09:42:34;3.97;;;1.60;;
14203;SDS011;7185;51.854;6.622;2022-08-01T09:45:06;2.55;;;1.42;;
14203;SDS011;7185;51.854;6.622;2022-08-01T09:47:39;2.40;;;1.40;;
14203;SDS011;7185;51.854;6.622;2022-08-01T09:50:11;3.95;;;1.20;;
14203;SDS011;7185;51.854;6.622;2022-08-01T09:52:48;2.35;;;1.20;;
14203;SDS011;7185;51.854;6.622;2022-08-01T09:55:26;2.85;;;1.40;;
14203;SDS011;7185;51.854;6.622;2022-08-01T09:58:00;3.80;;;1.27;;
14203;SDS011;7185;51.854;6.622;2022-08-01T10:00:37;3.15;;;1.55;;
14203;SDS011;7185;51.854;6.622;2022-08-01T10:03:18;4.20;;;1.67;;
14203;SDS011;7185;51.854;6.622;2022-08-01T10:05:52;3.83;;;1.70;;
14203;SDS011;7185;51.854;6.622;2022-08-01T10:08:24;2.78;;;1.90;;
14203;SDS011;7185;51.854;6.622;2022-08-01T10:11:06;2.40;;;1.58;;
14203;SDS011;7185;51.854;6.622;2022-08-01T10:13:46;3.65;;;1.95;;
14203;SDS011;7185;51.854;6.622;2022-08-01T10:16:22;3.03;;;2.00;;
14203;SDS011;7185;51.854;6.622;2022-08-01T10:18:55;3.42;;;1.98;;
14203;SDS011;7185;51.854;6.622;2022-08-01T10:21:28;3.20;;;1.80;;
14203;SDS011;7185;51.854;6.622;2022-08-01T10:24:04;2.83;;;1.70;;
14203;SDS011;7185;51.854;6.622;2022-08-01T10:26:44;3.00;;;1.75;;
14203;SDS011;7185;51.854;6.622;2022-08-01T10:29:21;4.20;;;1.90;;
14203;SDS011;7185;51.854;6.622;2022-08-01T10:31:57;4.43;;;2.10;;
14203;SDS011;7185;51.854;6.622;2022-08-01T10:34:29;4.15;;;1.65;;
14203;SDS011;7185;51.854;6.622;2022-08-01T10:37:01;3.20;;;1.85;;
14203;SDS011;7185;51.854;6.622;2022-08-01T10:39:34;2.78;;;1.70;;
14203;SDS011;7185;51.854;6.622;2022-08-01T10:42:06;2.85;;;1.60;;
14203;SDS011;7185;51.854;6.622;2022-08-01T10:44:43;5.32;;;2.15;;
14203;SDS011;7185;51.854;6.622;2022-08-01T10:47:17;4.65;;;1.83;;
14203;SDS011;7185;51.854;6.622;2022-08-01T10:49:53;4.65;;;2.08;;
14203;SDS011;7185;51.854;6.622;2022-08-01T10:52:30;3.70;;;1.90;;
14203;SDS011;7185;51.854;6.622;2022-08-01T10:55:02;4.47;;;1.80;;
14203;SDS011;7185;51.854;6.622;2022-08-01T10:57:41;5.47;;;2.22;;
14203;SDS011;7185;51.854;6.622;2022-08-01T11:00:18;5.63;;;2.22;;
14203;SDS011;7185;51.854;6.622;2022-08-01T11:03:06;7.18;;;2.30;;
14203;SDS011;7185;51.854;6.622;2022-08-01T11:05:41;7.82;;;2.40;;
14203;SDS011;7185;51.854;6.622;2022-08-01T11:08:22;4.68;;;2.42;;
14203;SDS011;7185;51.854;6.622;2022-08-01T11:10:59;6.18;;;3.28;;
14203;SDS011;7185;51.854;6.622;2022-08-01T11:16:34;4.68;;;2.53;;
14203;SDS011;7185;51.854;6.622;2022-08-01T11:19:07;5.03;;;2.47;;
14203;SDS011;7185;51.854;6.622;2022-08-01T11:21:59;4.47;;;2.20;;
14203;SDS011;7185;51.854;6.622;2022-08-01T11:27:28;7.15;;;2.50;;
14203;SDS011;7185;51.854;6.622;2022-08-01T11:32:57;5.90;;;2.30;;
14203;SDS011;7185;51.854;6.622;2022-08-01T11:35:28;5.97;;;2.50;;
14203;SDS011;7185;51.854;6.622;2022-08-01T11:41:09;8.98;;;3.03;;
14203;SDS011;7185;51.854;6.622;2022-08-01T11:43:54;6.22;;;3.00;;
14203;SDS011;7185;51.854;6.622;2022-08-01T11:46:48;6.95;;;2.97;;
14203;SDS011;7185;51.854;6.622;2022-08-01T11:49:33;6.47;;;2.60;;
14203;SDS011;7185;51.854;6.622;2022-08-01T11:52:16;6.68;;;2.90;;
14203;SDS011;7185;51.854;6.622;2022-08-01T11:54:50;6.05;;;3.10;;
14203;SDS011;7185;51.854;6.622;2022-08-01T12:00:03;6.22;;;3.20;;
14203;SDS011;7185;51.854;6.622;2022-08-01T12:02:40;6.97;;;3.28;;
14203;SDS011;7185;51.854;6.622;2022-08-01T12:05:14;5.30;;;3.13;;
14203;SDS011;7185;51.854;6.622;2022-08-01T12:07:50;6.95;;;3.05;;
14203;SDS011;7185;51.854;6.622;2022-08-01T12:10:26;6.43;;;3.15;;
14203;SDS011;7185;51.854;6.622;2022-08-01T12:13:03;8.18;;;2.92;;
14203;SDS011;7185;51.854;6.622;2022-08-01T12:15:36;6.78;;;3.22;;
14203;SDS011;7185;51.854;6.622;2022-08-01T12:18:11;6.90;;;3.22;;
14203;SDS011;7185;51.854;6.622;2022-08-01T12:20:45;5.68;;;2.85;;
14203;SDS011;7185;51.854;6.622;2022-08-01T12:23:17;6.30;;;3.33;;
14203;SDS011;7185;51.854;6.622;2022-08-01T12:25:50;7.20;;;3.38;;
14203;SDS011;7185;51.854;6.622;2022-08-01T12:28:23;6.80;;;3.40;;
14203;SDS011;7185;51.854;6.622;2022-08-01T12:30:54;6.10;;;2.75;;
14203;SDS011;7185;51.854;6.622;2022-08-01T12:33:26;5.03;;;3.00;;
14203;SDS011;7185;51.854;6.622;2022-08-01T12:35:59;6.47;;;3.55;;
14203;SDS011;7185;51.854;6.622;2022-08-01T12:38:31;6.38;;;3.60;;
14203;SDS011;7185;51.854;6.622;2022-08-01T12:41:04;5.93;;;3.53;;
14203;SDS011;7185;51.854;6.622;2022-08-01T12:43:41;7.55;;;2.97;;
14203;SDS011;7185;51.854;6.622;2022-08-01T12:46:13;5.00;;;2.47;;
14203;SDS011;7185;51.854;6.622;2022-08-01T12:48:47;4.82;;;2.50;;
14203;SDS011;7185;51.854;6.622;2022-08-01T12:51:20;6.00;;;2.40;;
14203;SDS011;7185;51.854;6.622;2022-08-01T12:53:52;5.53;;;2.58;;
14203;SDS011;7185;51.854;6.622;2022-08-01T12:56:30;5.80;;;3.00;;
14203;SDS011;7185;51.854;6.622;2022-08-01T12:59:18;5.68;;;3.22;;
14203;SDS011;7185;51.854;6.622;2022-08-01T13:04:28;6.13;;;3.40;;
14203;SDS011;7185;51.854;6.622;2022-08-01T13:10:25;7.47;;;3.03;;
14203;SDS011;7185;51.854;6.622;2022-08-01T13:13:06;7.05;;;3.13;;
14203;SDS011;7185;51.854;6.622;2022-08-01T13:16:01;5.20;;;2.92;;
14203;SDS011;7185;51.854;6.622;2022-08-01T13:18:39;6.85;;;2.58;;
14203;SDS011;7185;51.854;6.622;2022-08-01T13:21:15;4.97;;;2.20;;
14203;SDS011;7185;51.854;6.622;2022-08-01T13:24:02;5.40;;;2.28;;
14203;SDS011;7185;51.854;6.622;2022-08-01T13:26:44;5.72;;;2.08;;
14203;SDS011;7185;51.854;6.622;2022-08-01T13:29:19;5.70;;;2.50;;
14203;SDS011;7185;51.854;6.622;2022-08-01T13:31:54;8.60;;;2.55;;
14203;SDS011;7185;51.854;6.622;2022-08-01T13:34:32;5.22;;;2.42;;
14203;SDS011;7185;51.854;6.622;2022-08-01T13:37:21;5.40;;;2.50;;
14203;SDS011;7185;51.854;6.622;2022-08-01T13:39:56;4.93;;;1.80;;
14203;SDS011;7185;51.854;6.622;2022-08-01T13:42:45;4.85;;;2.05;;
14203;SDS011;7185;51.854;6.622;2022-08-01T13:45:21;5.22;;;2.40;;
14203;SDS011;7185;51.854;6.622;2022-08-01T13:48:49;4.72;;;1.90;;
14203;SDS011;7185;51.854;6.622;2022-08-01T13:54:31;5.22;;;2.47;;
14203;SDS011;7185;51.854;6.622;2022-08-01T13:57:35;3.95;;;1.92;;
14203;SDS011;7185;51.854;6.622;2022-08-01T14:00:12;7.15;;;2.20;;
14203;SDS011;7185;51.854;6.622;2022-08-01T14:02:47;4.50;;;2.00;;
14203;SDS011;7185;51.854;6.622;2022-08-01T14:05:22;5.50;;;2.00;;
14203;SDS011;7185;51.854;6.622;2022-08-01T14:07:54;6.85;;;1.77;;
14203;SDS011;7185;51.854;6.622;2022-08-01T14:10:26;3.55;;;1.77;;
14203;SDS011;7185;51.854;6.622;2022-08-01T14:12:57;8.35;;;2.15;;
14203;SDS011;7185;51.854;6.622;2022-08-01T14:15:31;4.57;;;1.70;;
14203;SDS011;7185;51.854;6.622;2022-08-01T14:18:03;5.18;;;1.80;;
14203;SDS011;7185;51.854;6.622;2022-08-01T14:20:35;8.18;;;2.05;;
14203;SDS011;7185;51.854;6.622;2022-08-01T14:23:09;5.72;;;2.17;;
14203;SDS011;7185;51.854;6.622;2022-08-01T14:25:41;5.47;;;1.67;;
14203;SDS011;7185;51.854;6.622;2022-08-01T14:28:13;9.27;;;1.73;;
14203;SDS011;7185;51.854;6.622;2022-08-01T14:30:46;5.72;;;1.63;;
14203;SDS011;7185;51.854;6.622;2022-08-01T14:33:18;3.63;;;1.40;;
14203;SDS011;7185;51.854;6.622;2022-08-01T14:35:49;4.22;;;1.48;;
14203;SDS011;7185;51.854;6.622;2022-08-01T14:38:21;6.95;;;2.25;;
14203;SDS011;7185;51.854;6.622;2022-08-01T14:40:53;3.95;;;1.63;;
14203;SDS011;7185;51.854;6.622;2022-08-01T14:43:25;3.55;;;1.33;;
14203;SDS011;7185;51.854;6.622;2022-08-01T14:45:58;7.47;;;2.85;;
14203;SDS011;7185;51.854;6.622;2022-08-01T14:48:30;5.63;;;1.90;;
14203;SDS011;7185;51.854;6.622;2022-08-01T14:51:02;4.85;;;1.63;;
14203;SDS011;7185;51.854;6.622;2022-08-01T14:53:34;4.63;;;1.70;;
14203;SDS011;7185;51.854;6.622;2022-08-01T14:56:07;6.35;;;1.67;;
14203;SDS011;7185;51.854;6.622;2022-08-01T14:58:39;4.93;;;1.52;;
14203;SDS011;7185;51.854;6.622;2022-08-01T15:01:12;5.35;;;1.48;;
14203;SDS011;7185;51.854;6.622;2022-08-01T15:03:43;7.30;;;1.88;;
14203;SDS011;7185;51.854;6.622;2022-08-01T15:06:16;4.78;;;1.65;;
14203;SDS011;7185;51.854;6.622;2022-08-01T15:08:48;6.75;;;1.52;;
14203;SDS011;7185;51.854;6.622;2022-08-01T15:11:19;5.25;;;1.70;;
14203;SDS011;7185;51.854;6.622;2022-08-01T15:13:51;5.75;;;1.67;;
14203;SDS011;7185;51.854;6.622;2022-08-01T15:16:38;5.30;;;1.50;;
14203;SDS011;7185;51.854;6.622;2022-08-01T15:19:10;6.28;;;2.30;;
14203;SDS011;7185;51.854;6.622;2022-08-01T15:21:41;6.30;;;1.60;;
14203;SDS011;7185;51.854;6.622;2022-08-01T15:24:13;5.53;;;1.80;;
14203;SDS011;7185;51.854;6.622;2022-08-01T15:26:45;5.25;;;1.60;;
14203;SDS011;7185;51.854;6.622;2022-08-01T15:29:17;6.93;;;2.08;;
14203;SDS011;7185;51.854;6.622;2022-08-01T15:31:50;5.78;;;1.73;;
14203;SDS011;7185;51.854;6.622;2022-08-01T15:34:22;5.55;;;1.60;;
14203;SDS011;7185;51.854;6.622;2022-08-01T15:36:53;6.97;;;1.52;;
14203;SDS011;7185;51.854;6.622;2022-08-01T15:39:25;5.13;;;1.55;;
14203;SDS011;7185;51.854;6.622;2022-08-01T15:41:57;5.60;;;1.73;;
14203;SDS011;7185;51.854;6.622;2022-08-01T15:44:29;7.38;;;1.75;;
14203;SDS011;7185;51.854;6.622;2022-08-01T15:47:03;6.07;;;1.65;;
14203;SDS011;7185;51.854;6.622;2022-08-01T15:49:37;3.80;;;1.40;;
14203;SDS011;7185;51.854;6.622;2022-08-01T15:52:09;10.45;;;1.20;;
14203;SDS011;7185;51.854;6.622;2022-08-01T15:54:41;5.55;;;1.92;;
14203;SDS011;7185;51.854;6.622;2022-08-01T15:57:12;6.15;;;1.80;;
14203;SDS011;7185;51.854;6.622;2022-08-01T15:59:44;5.15;;;1.90;;
14203;SDS011;7185;51.854;6.622;2022-08-01T16:02:18;2.58;;;1.17;;
14203;SDS011;7185;51.854;6.622;2022-08-01T16:04:50;6.72;;;1.30;;
14203;SDS011;7185;51.854;6.622;2022-08-01T16:07:21;5.53;;;1.40;;
14203;SDS011;7185;51.854;6.622;2022-08-01T16:09:53;5.60;;;1.70;;